createdAt,value
2022-08-26T00:01:56.796Z,23.90
2022-08-26T00:04:25.970Z,23.90
2022-08-26T00:06:55.054Z,24.00
2022-08-26T00:09:23.849Z,24.00
2022-08-26T00:11:52.664Z,23.90
2022-08-26T00:14:20.440Z,24.00
2022-08-26T00:16:48.798Z,24.00
2022-08-26T00:19:18.424Z,24.00
2022-08-26T00:21:48.779Z,23.90
2022-08-26T00:24:17.894Z,24.00
2022-08-26T00:26:45.200Z,24.00
2022-08-26T00:29:12.586Z,24.00
2022-08-26T00:31:40.511Z,24.00
2022-08-26T00:34:09.318Z,24.10
2022-08-26T00:36:37.159Z,24.10
2022-08-26T00:39:06.951Z,24.10
2022-08-26T00:41:35.244Z,24.00
2022-08-26T00:44:02.537Z,24.00
2022-08-26T00:46:34.798Z,24.00
2022-08-26T00:49:21.567Z,23.90
2022-08-26T00:51:55.422Z,23.90
2022-08-26T00:54:26.970Z,23.80
2022-08-26T00:57:16.541Z,23.70
2022-08-26T00:59:46.856Z,23.60
2022-08-26T01:02:21.327Z,23.60
2022-08-26T01:05:01.370Z,23.50
2022-08-26T01:07:31.741Z,23.50
2022-08-26T01:10:05.153Z,23.40
2022-08-26T01:12:40.192Z,23.40
2022-08-26T01:15:10.249Z,23.40
2022-08-26T01:17:39.303Z,23.30
2022-08-26T01:20:25.027Z,23.30
2022-08-26T01:23:05.203Z,23.20
2022-08-26T01:25:34.861Z,23.20
2022-08-26T01:28:05.782Z,23.20
2022-08-26T01:30:34.172Z,23.20
2022-08-26T01:33:05.054Z,23.10
2022-08-26T01:35:32.440Z,23.10
2022-08-26T01:38:02.229Z,23.00
2022-08-26T01:40:33.630Z,23.00
2022-08-26T01:43:02.225Z,23.00
2022-08-26T01:45:32.442Z,23.00
2022-08-26T01:48:04.807Z,23.00
2022-08-26T01:50:35.173Z,22.90
2022-08-26T01:53:09.470Z,22.90
2022-08-26T01:55:41.610Z,22.90
2022-08-26T01:58:14.890Z,22.80
2022-08-26T02:00:41.850Z,22.80
2022-08-26T02:03:17.429Z,22.70
2022-08-26T02:05:54.948Z,22.70
2022-08-26T02:08:43.485Z,22.70
2022-08-26T02:11:11.225Z,22.70
2022-08-26T02:13:43.386Z,22.70
2022-08-26T02:16:11.698Z,22.70
2022-08-26T02:18:41.711Z,22.70
2022-08-26T02:21:11.881Z,22.70
2022-08-26T02:23:39.690Z,22.70
2022-08-26T02:26:17.897Z,22.70
2022-08-26T02:29:07.731Z,22.70
2022-08-26T02:31:34.686Z,22.70
2022-08-26T02:34:14.393Z,22.60
2022-08-26T02:36:42.657Z,22.60
2022-08-26T02:39:10.038Z,22.60
2022-08-26T02:41:40.291Z,22.60
2022-08-26T02:44:12.332Z,22.50
2022-08-26T02:46:39.418Z,22.50
2022-08-26T02:49:07.009Z,22.50
2022-08-26T02:51:34.037Z,22.50
2022-08-26T02:54:01.060Z,22.40
2022-08-26T02:56:29.296Z,22.40
2022-08-26T02:58:56.451Z,22.40
2022-08-26T03:01:30.237Z,22.40
2022-08-26T03:03:59.694Z,22.40
2022-08-26T03:06:26.682Z,22.40
2022-08-26T03:08:53.654Z,22.30
2022-08-26T03:11:20.662Z,22.30
2022-08-26T03:13:48.962Z,22.30
2022-08-26T03:16:16.241Z,22.20
2022-08-26T03:18:51.994Z,22.20
2022-08-26T03:21:20.970Z,22.20
2022-08-26T03:23:48.220Z,22.20
2022-08-26T03:26:15.984Z,22.20
2022-08-26T03:29:02.092Z,22.10
2022-08-26T03:31:29.757Z,22.10
2022-08-26T03:33:59.575Z,22.10
2022-08-26T03:36:26.657Z,22.10
2022-08-26T03:38:54.352Z,22.00
2022-08-26T03:41:21.378Z,22.00
2022-08-26T03:43:50.696Z,22.00
2022-08-26T03:46:20.634Z,22.00
2022-08-26T03:48:48.000Z,22.00
2022-08-26T03:51:19.421Z,21.90
2022-08-26T03:53:48.103Z,21.90
2022-08-26T03:56:15.468Z,21.90
2022-08-26T03:58:44.322Z,21.80
2022-08-26T04:01:12.190Z,21.80
2022-08-26T04:03:57.447Z,21.80
2022-08-26T04:06:33.425Z,21.70
2022-08-26T04:09:04.210Z,21.70
2022-08-26T04:11:34.548Z,21.70
2022-08-26T04:14:04.979Z,21.70
2022-08-26T04:16:32.435Z,21.70
2022-08-26T04:18:59.621Z,21.70
2022-08-26T04:21:28.151Z,21.70
2022-08-26T04:23:56.504Z,21.70
2022-08-26T04:26:26.148Z,21.70
2022-08-26T04:28:54.861Z,21.70
2022-08-26T04:31:22.203Z,21.70
2022-08-26T04:33:50.223Z,21.70
2022-08-26T04:36:20.087Z,21.80
2022-08-26T04:38:47.826Z,21.90
2022-08-26T04:41:16.767Z,21.90
2022-08-26T04:43:45.451Z,22.00
2022-08-26T04:46:13.813Z,22.10
2022-08-26T04:48:42.036Z,22.10
2022-08-26T04:51:09.959Z,22.10
2022-08-26T04:53:37.874Z,22.20
2022-08-26T04:56:05.093Z,22.20
2022-08-26T04:58:32.558Z,22.30
2022-08-26T05:01:00.337Z,22.50
2022-08-26T05:03:30.489Z,22.70
2022-08-26T05:05:58.580Z,22.90
2022-08-26T05:08:26.123Z,22.90
2022-08-26T05:10:56.074Z,23.00
2022-08-26T05:13:26.134Z,23.00
2022-08-26T05:15:53.154Z,23.20
2022-08-26T05:18:23.606Z,23.60
2022-08-26T05:20:53.950Z,24.00
2022-08-26T05:23:23.286Z,24.50
2022-08-26T05:25:58.394Z,25.10
2022-08-26T05:28:28.387Z,25.70
2022-08-26T05:30:56.389Z,26.30
2022-08-26T05:33:24.281Z,26.80
2022-08-26T05:35:51.253Z,27.40
2022-08-26T05:38:21.012Z,27.90
2022-08-26T05:40:52.859Z,28.40
2022-08-26T05:43:20.927Z,28.90
2022-08-26T05:45:50.388Z,29.50
2022-08-26T05:48:22.660Z,30.10
2022-08-26T05:50:53.025Z,30.80
2022-08-26T05:53:22.997Z,31.60
2022-08-26T05:55:55.111Z,32.30
2022-08-26T05:58:23.432Z,33.00
2022-08-26T06:01:13.179Z,33.60
2022-08-26T06:03:44.518Z,34.10
2022-08-26T06:06:14.901Z,34.10
2022-08-26T06:08:47.854Z,33.80
2022-08-26T06:11:19.173Z,33.30
2022-08-26T06:13:47.340Z,33.00
2022-08-26T06:16:17.225Z,33.30
2022-08-26T06:18:46.081Z,33.90
2022-08-26T06:21:26.497Z,34.10
2022-08-26T06:24:18.903Z,33.80
2022-08-26T06:26:52.856Z,33.70
2022-08-26T06:29:24.172Z,34.40
2022-08-26T06:31:52.958Z,35.10
2022-08-26T06:34:20.219Z,35.10
2022-08-26T06:36:47.789Z,34.70
2022-08-26T06:39:17.491Z,34.00
2022-08-26T06:41:45.631Z,33.40
2022-08-26T06:44:14.600Z,32.90
2022-08-26T06:46:43.208Z,32.20
2022-08-26T06:49:12.386Z,31.40
2022-08-26T06:51:40.824Z,30.70
2022-08-26T06:54:09.237Z,30.30
2022-08-26T06:56:39.857Z,29.90
2022-08-26T06:59:08.306Z,29.80
2022-08-26T07:01:42.854Z,29.90
2022-08-26T07:04:10.856Z,31.00
2022-08-26T07:06:40.799Z,32.50
2022-08-26T07:09:10.570Z,34.10
2022-08-26T07:11:39.089Z,35.50
2022-08-26T07:14:07.191Z,36.80
2022-08-26T07:16:35.843Z,37.90
2022-08-26T07:19:11.150Z,38.80
2022-08-26T07:21:41.557Z,39.50
2022-08-26T07:24:10.541Z,39.80
2022-08-26T07:26:42.995Z,39.90
2022-08-26T07:29:12.420Z,39.70
2022-08-26T07:31:42.414Z,39.10
2022-08-26T07:34:10.831Z,38.60
2022-08-26T07:36:38.093Z,38.10
2022-08-26T07:39:06.261Z,37.70
2022-08-26T07:41:33.591Z,37.30
2022-08-26T07:44:01.062Z,36.80
2022-08-26T07:46:30.163Z,36.40
2022-08-26T07:48:58.008Z,36.00
2022-08-26T07:51:25.541Z,35.60
2022-08-26T07:53:53.152Z,35.40
2022-08-26T07:56:23.105Z,35.20
2022-08-26T07:58:52.742Z,35.10
2022-08-26T08:01:21.102Z,35.10
2022-08-26T08:03:51.586Z,35.10
2022-08-26T08:06:20.346Z,35.10
2022-08-26T08:08:48.109Z,35.00
2022-08-26T08:11:21.187Z,35.00
2022-08-26T08:13:50.087Z,35.00
2022-08-26T08:16:25.239Z,35.00
2022-08-26T08:18:53.581Z,34.90
2022-08-26T08:21:21.742Z,34.80
2022-08-26T08:23:49.188Z,34.80
2022-08-26T08:26:16.877Z,34.60
2022-08-26T08:28:43.916Z,34.50
2022-08-26T08:31:52.079Z,34.30
2022-08-26T08:34:12.926Z,34.20
2022-08-26T08:36:39.885Z,34.20
2022-08-26T08:39:07.039Z,34.20
2022-08-26T08:41:55.996Z,34.30
2022-08-26T08:47:01.352Z,34.20
2022-08-26T08:49:29.815Z,34.10
2022-08-26T08:52:06.802Z,34.00
2022-08-26T08:54:33.919Z,33.80
2022-08-26T08:57:15.952Z,33.70
2022-08-26T09:00:18.136Z,33.70
2022-08-26T09:02:58.329Z,33.70
2022-08-26T09:05:31.941Z,33.70
2022-08-26T09:08:11.123Z,33.90
2022-08-26T09:10:50.479Z,33.90
2022-08-26T09:13:25.173Z,33.80
2022-08-26T09:16:00.079Z,33.60
2022-08-26T09:18:59.119Z,33.30
2022-08-26T09:21:27.090Z,33.00
2022-08-26T09:23:56.770Z,32.70
2022-08-26T09:26:39.129Z,32.40
2022-08-26T09:29:14.255Z,32.30
2022-08-26T09:31:42.059Z,32.20
2022-08-26T09:34:22.394Z,31.90
2022-08-26T09:36:51.292Z,31.80
2022-08-26T09:39:24.014Z,31.60
2022-08-26T09:42:08.144Z,31.50
2022-08-26T09:44:59.563Z,31.40
2022-08-26T09:47:31.783Z,31.30
2022-08-26T09:50:28.983Z,31.40
2022-08-26T09:53:16.692Z,31.30
2022-08-26T09:55:47.789Z,31.30
2022-08-26T09:58:33.082Z,31.20
2022-08-26T10:01:02.451Z,31.30
2022-08-26T10:03:33.274Z,31.30
2022-08-26T10:06:07.534Z,31.40
2022-08-26T10:08:40.894Z,31.50
2022-08-26T10:11:20.551Z,31.50
2022-08-26T10:13:58.134Z,31.50
2022-08-26T10:16:34.661Z,31.60
2022-08-26T10:19:29.139Z,31.60
2022-08-26T10:22:25.188Z,31.80
2022-08-26T10:25:00.550Z,31.80
2022-08-26T10:28:03.976Z,31.90
2022-08-26T10:30:40.669Z,32.00
2022-08-26T10:33:14.560Z,31.90
2022-08-26T10:35:52.145Z,31.90
2022-08-26T10:38:29.464Z,31.90
2022-08-26T10:41:18.204Z,32.00
2022-08-26T10:43:52.573Z,31.90
2022-08-26T10:46:27.302Z,32.10
2022-08-26T10:49:07.478Z,32.20
2022-08-26T10:51:42.171Z,32.20
2022-08-26T10:54:15.633Z,32.30
2022-08-26T10:56:58.508Z,32.40
2022-08-26T10:59:40.520Z,32.50
2022-08-26T11:02:47.123Z,32.60
2022-08-26T11:05:23.478Z,32.60
2022-08-26T11:08:14.322Z,32.70
2022-08-26T11:11:00.517Z,32.80
2022-08-26T11:13:56.507Z,32.90
2022-08-26T11:16:53.179Z,33.00
2022-08-26T11:19:58.844Z,33.10
2022-08-26T11:22:33.377Z,33.30
2022-08-26T11:25:03.531Z,33.20
2022-08-26T11:27:36.666Z,33.20
2022-08-26T11:30:08.299Z,33.20
2022-08-26T11:32:40.096Z,33.10
2022-08-26T11:35:09.969Z,33.10
2022-08-26T11:37:48.223Z,33.30
2022-08-26T11:40:20.623Z,33.40
2022-08-26T11:43:08.034Z,33.50
2022-08-26T11:45:44.408Z,33.60
2022-08-26T11:48:18.825Z,33.60
2022-08-26T11:51:00.497Z,33.70
2022-08-26T11:53:28.823Z,33.60
2022-08-26T11:55:59.241Z,33.50
2022-08-26T11:58:27.722Z,33.50
2022-08-26T12:01:01.748Z,33.50
2022-08-26T12:03:44.800Z,33.60
2022-08-26T12:06:14.210Z,33.70
2022-08-26T12:08:43.980Z,33.70
2022-08-26T12:11:21.153Z,33.70
2022-08-26T12:14:01.649Z,33.70
2022-08-26T12:16:37.091Z,33.80
2022-08-26T12:19:22.618Z,33.80
2022-08-26T12:21:58.408Z,33.90
2022-08-26T12:24:26.257Z,34.20
2022-08-26T12:27:06.561Z,34.40
2022-08-26T12:29:35.151Z,34.70
2022-08-26T12:32:15.090Z,34.90
2022-08-26T12:34:44.580Z,34.90
2022-08-26T12:37:14.248Z,34.90
2022-08-26T12:39:44.641Z,34.90
2022-08-26T12:42:17.490Z,34.90
2022-08-26T12:45:11.506Z,34.90
2022-08-26T12:47:43.998Z,35.00
2022-08-26T12:50:33.824Z,35.30
2022-08-26T12:53:09.897Z,35.50
2022-08-26T12:55:45.377Z,35.70
2022-08-26T12:58:15.669Z,35.80
2022-08-26T13:00:53.947Z,35.80
2022-08-26T13:03:45.610Z,35.90
2022-08-26T13:06:31.444Z,35.90
2022-08-26T13:09:07.411Z,36.00
2022-08-26T13:11:54.613Z,36.10
2022-08-26T13:14:24.937Z,35.80
2022-08-26T13:16:53.062Z,35.50
2022-08-26T13:19:24.448Z,35.30
2022-08-26T13:21:57.317Z,35.20
2022-08-26T13:24:36.225Z,35.00
2022-08-26T13:27:05.222Z,34.90
2022-08-26T13:29:32.339Z,34.70
2022-08-26T13:32:00.221Z,34.60
2022-08-26T13:34:29.155Z,34.50
2022-08-26T13:36:57.915Z,34.30
2022-08-26T13:39:25.987Z,34.20
2022-08-26T13:41:53.861Z,34.10
2022-08-26T13:44:21.708Z,34.20
2022-08-26T13:46:48.810Z,34.30
2022-08-26T13:49:16.230Z,34.20
2022-08-26T13:51:43.518Z,34.10
2022-08-26T13:54:10.594Z,33.90
2022-08-26T13:56:39.997Z,33.60
2022-08-26T14:45:59.064Z,32.00
2022-08-26T14:48:29.264Z,32.20
2022-08-26T14:50:56.284Z,32.20
2022-08-26T14:53:41.647Z,32.20
2022-08-26T14:56:12.637Z,32.40
2022-08-26T16:00:15.659Z,29.90
2022-08-26T16:02:42.681Z,29.70
2022-08-26T16:05:10.168Z,29.50
2022-08-26T16:07:37.161Z,29.30
2022-08-26T16:10:04.302Z,29.10
2022-08-26T16:12:31.267Z,28.70
2022-08-26T16:14:58.173Z,28.40
2022-08-26T16:17:25.210Z,28.20
2022-08-26T16:19:52.198Z,27.90
2022-08-26T16:22:19.244Z,27.70
2022-08-26T16:24:46.899Z,27.50
2022-08-26T16:27:14.115Z,27.40
2022-08-26T16:29:41.222Z,27.30
2022-08-26T16:32:09.182Z,27.20
2022-08-26T16:34:36.583Z,27.10
2022-08-26T16:37:04.016Z,27.00
2022-08-26T16:39:31.292Z,26.90
2022-08-26T16:41:58.578Z,26.80
2022-08-26T16:44:27.933Z,26.70
2022-08-26T16:46:58.031Z,26.20
2022-08-26T16:49:27.213Z,26.60
2022-08-26T16:51:54.252Z,26.60
2022-08-26T16:54:21.360Z,26.50
2022-08-26T16:56:48.776Z,26.50
2022-08-26T16:59:15.884Z,26.50
2022-08-26T17:01:42.964Z,26.50
2022-08-26T17:04:10.101Z,26.50
2022-08-26T17:06:38.214Z,26.60
2022-08-26T17:09:05.577Z,26.60
2022-08-26T17:11:33.084Z,26.70
2022-08-26T17:14:00.207Z,26.70
2022-08-26T17:16:27.703Z,26.70
2022-08-26T17:18:57.313Z,26.70
2022-08-26T17:21:25.144Z,26.70
2022-08-26T17:23:52.576Z,26.70
2022-08-26T17:26:19.588Z,26.70
2022-08-26T17:28:46.725Z,26.70
2022-08-26T17:31:13.772Z,26.70
2022-08-26T17:33:40.940Z,26.70
2022-08-26T17:36:09.364Z,26.70
2022-08-26T17:38:37.716Z,26.70
2022-08-26T17:41:10.166Z,26.70
2022-08-26T17:43:37.683Z,26.70
2022-08-26T17:46:07.430Z,26.70
2022-08-26T17:48:36.200Z,26.70
2022-08-26T17:51:12.531Z,26.60
2022-08-26T17:53:41.297Z,26.60
2022-08-26T17:56:10.297Z,26.60
2022-08-26T17:58:37.932Z,26.60
2022-08-26T18:01:06.220Z,26.50
2022-08-26T18:03:33.727Z,26.60
2022-08-26T18:06:01.283Z,26.50
2022-08-26T18:08:28.247Z,26.40
2022-08-26T18:10:55.247Z,26.20
2022-08-26T18:13:22.136Z,25.90
2022-08-26T18:15:49.025Z,25.60
2022-08-26T18:18:16.128Z,25.50
2022-08-26T18:20:44.793Z,25.40
2022-08-26T18:23:12.864Z,25.40
2022-08-26T18:25:44.137Z,25.40
2022-08-26T18:28:11.527Z,25.50
2022-08-26T18:30:38.661Z,25.50
2022-08-26T18:33:05.729Z,25.60
2022-08-26T18:35:32.746Z,25.60
2022-08-26T18:38:07.711Z,25.70
2022-08-26T18:40:42.877Z,25.70
2022-08-26T18:43:10.051Z,25.70
2022-08-26T18:45:37.653Z,25.70
2022-08-26T18:48:05.735Z,25.60
2022-08-26T18:50:32.738Z,25.60
2022-08-26T18:53:00.925Z,25.50
2022-08-26T18:55:28.265Z,25.40
2022-08-26T18:57:55.238Z,25.40
2022-08-26T19:00:22.238Z,25.20
2022-08-26T19:02:52.042Z,25.20
2022-08-26T19:05:19.719Z,25.10
2022-08-26T19:07:48.016Z,25.10
2022-08-26T19:10:15.347Z,24.90
2022-08-26T19:12:42.542Z,24.90
2022-08-26T19:15:11.386Z,24.90
2022-08-26T19:17:38.360Z,24.90
2022-08-26T19:20:05.744Z,24.90
2022-08-26T19:22:32.671Z,24.90
2022-08-26T19:24:59.572Z,25.00
2022-08-26T19:27:26.523Z,24.90
2022-08-26T19:29:53.671Z,24.90
2022-08-26T19:32:24.187Z,24.90
2022-08-26T19:34:52.651Z,24.80
2022-08-26T19:37:20.714Z,24.80
2022-08-26T19:39:47.825Z,24.60
2022-08-26T19:42:14.772Z,24.60
2022-08-26T19:45:00.173Z,24.50
2022-08-26T19:47:27.158Z,24.40
2022-08-26T19:49:55.753Z,24.30
2022-08-26T19:52:24.208Z,24.30
2022-08-26T19:54:57.578Z,24.20
2022-08-26T19:57:24.648Z,24.10
2022-08-26T19:59:51.627Z,24.00
2022-08-26T20:02:19.229Z,23.90
2022-08-26T20:04:46.386Z,23.80
2022-08-26T20:07:18.540Z,23.80
2022-08-26T20:09:47.519Z,23.70
2022-08-26T20:12:15.471Z,23.70
2022-08-26T20:14:42.820Z,23.60
2022-08-26T20:17:10.014Z,23.60
2022-08-26T20:19:55.511Z,23.50
2022-08-26T20:22:22.639Z,23.40
2022-08-26T20:24:50.031Z,23.40
2022-08-26T20:27:16.983Z,23.40
2022-08-26T20:29:44.026Z,23.40
2022-08-26T20:32:12.114Z,23.40
2022-08-26T20:34:39.918Z,23.40
2022-08-26T20:37:08.448Z,23.40
2022-08-26T20:39:35.774Z,23.40
2022-08-26T20:42:03.268Z,23.30
2022-08-26T20:44:30.209Z,23.30
2022-08-26T20:46:59.190Z,23.40
2022-08-26T20:49:28.012Z,23.40
2022-08-26T20:51:55.354Z,23.40
2022-08-26T20:54:28.155Z,23.40
2022-08-26T20:56:57.167Z,23.40
2022-08-26T20:59:25.121Z,23.30
2022-08-26T21:01:52.460Z,23.20
2022-08-26T21:04:22.567Z,23.20
2022-08-26T21:06:52.650Z,23.20
2022-08-26T21:09:22.046Z,23.10
2022-08-26T21:11:50.012Z,23.10
2022-08-26T21:14:17.796Z,23.10
2022-08-26T21:16:46.080Z,23.10
2022-08-26T21:19:15.602Z,23.00
2022-08-26T21:21:42.822Z,23.00
2022-08-26T21:24:09.829Z,22.90
2022-08-26T21:26:37.037Z,22.90
2022-08-26T21:29:06.704Z,22.90
2022-08-26T21:31:34.971Z,22.80
2022-08-26T21:34:02.248Z,22.80
2022-08-26T21:36:29.410Z,22.80
2022-08-26T21:38:58.159Z,22.90
2022-08-26T21:41:26.388Z,22.90
2022-08-26T21:43:56.087Z,22.90
2022-08-26T21:46:24.607Z,22.90
2022-08-26T21:49:01.647Z,22.90
2022-08-26T21:51:31.772Z,22.90
2022-08-26T21:53:59.741Z,22.90
2022-08-26T21:56:30.020Z,22.90
2022-08-26T21:58:57.734Z,22.90
2022-08-26T22:01:27.465Z,22.90
2022-08-26T22:03:54.811Z,22.90
2022-08-26T22:06:25.509Z,22.90
2022-08-26T22:08:53.690Z,22.80
2022-08-26T22:11:20.763Z,22.80
2022-08-26T22:13:48.664Z,22.70
2022-08-26T22:16:16.337Z,22.70
2022-08-26T22:18:45.711Z,22.70
2022-08-26T22:21:20.456Z,22.60
2022-08-26T22:23:47.968Z,22.60
2022-08-26T22:26:20.580Z,22.50
2022-08-26T22:28:55.622Z,22.50
2022-08-26T22:31:37.541Z,22.50
2022-08-26T22:34:11.533Z,22.50
2022-08-26T22:36:43.879Z,22.50
2022-08-26T22:39:13.325Z,22.40
2022-08-26T22:41:42.092Z,22.40
2022-08-26T22:44:10.516Z,22.40
2022-08-26T22:46:38.671Z,22.40
2022-08-26T22:49:06.429Z,22.40
2022-08-26T22:51:33.443Z,22.40
2022-08-26T22:54:00.799Z,22.50
2022-08-26T22:56:27.833Z,22.50
2022-08-26T22:58:54.763Z,22.50
2022-08-26T23:01:21.846Z,22.50
2022-08-26T23:03:48.951Z,22.50
2022-08-26T23:06:16.059Z,22.50
2022-08-26T23:08:45.244Z,22.50
2022-08-26T23:11:13.480Z,22.50
2022-08-26T23:13:40.993Z,22.60
2022-08-26T23:16:11.645Z,22.50
2022-08-26T23:18:40.749Z,22.50
2022-08-26T23:21:08.207Z,22.50
2022-08-26T23:23:35.697Z,22.50
2022-08-26T23:26:06.202Z,22.50
2022-08-26T23:28:34.481Z,22.60
2022-08-26T23:31:01.783Z,22.60
2022-08-26T23:33:48.843Z,22.70
2022-08-26T23:36:17.833Z,22.70
2022-08-26T23:38:48.127Z,22.80
2022-08-26T23:41:22.256Z,22.80
2022-08-26T23:43:50.467Z,22.80
2022-08-26T23:46:18.593Z,22.80
2022-08-26T23:48:45.546Z,22.80
2022-08-26T23:51:31.126Z,22.90
2022-08-26T23:53:58.104Z,22.90
2022-08-26T23:56:25.142Z,23.00
2022-08-26T23:58:54.169Z,23.00
